Time;durP1;ratioP1;P1;durP2;ratioP2;P2;SDS_P1;SDS_P2;PMS_P1;PMS_P2;Temp;Humidity;BMP_temperature;BMP_pressure;BME280_temperature;BME280_humidity;BME280_pressure;Samples;Min_cycle;Max_cycle;Signal;HPM_P1;HPM_P2
2022/10/21 00:00:27;;;;;;;30.70;19.20;;;13.80;99.90;;;;;;5049274;28;20036;-74
2022/10/21 00:02:53;;;;;;;30.33;20.45;;;13.80;99.90;;;;;;5043275;28;20033;-74
2022/10/21 00:05:18;;;;;;;25.95;17.30;;;13.80;99.90;;;;;;5044349;28;21316;-74
2022/10/21 00:07:44;;;;;;;29.90;18.70;;;13.80;99.90;;;;;;5046651;28;20033;-74
2022/10/21 00:10:10;;;;;;;33.22;19.38;;;13.80;99.90;;;;;;5042505;28;20063;-74
2022/10/21 00:12:36;;;;;;;28.77;19.45;;;13.90;99.90;;;;;;5042438;28;20047;-74
2022/10/21 00:15:04;;;;;;;31.05;18.92;;;13.90;99.90;;;;;;5046811;28;20041;-74
2022/10/21 00:17:30;;;;;;;26.50;19.35;;;13.90;99.90;;;;;;5040817;28;20028;-74
2022/10/21 00:19:55;;;;;;;31.90;19.50;;;13.80;99.90;;;;;;5041948;28;20090;-74
2022/10/21 00:22:21;;;;;;;29.85;19.92;;;13.90;99.90;;;;;;5046353;28;20029;-74
2022/10/21 00:24:46;;;;;;;26.55;19.40;;;13.90;99.90;;;;;;5043826;28;20048;-74
2022/10/21 00:27:12;;;;;;;27.10;18.05;;;13.90;99.90;;;;;;5046388;28;20031;-74
2022/10/21 00:29:37;;;;;;;29.88;18.80;;;13.90;99.90;;;;;;5047278;28;20032;-74
2022/10/21 00:32:03;;;;;;;26.00;17.52;;;13.90;99.90;;;;;;5041599;28;20032;-74
2022/10/21 00:34:30;;;;;;;29.42;17.63;;;13.90;99.90;;;;;;5045424;28;20040;-74
2022/10/21 00:36:55;;;;;;;29.98;19.33;;;13.90;99.90;;;;;;5054365;28;20043;-74
2022/10/21 00:39:21;;;;;;;29.25;18.38;;;13.80;99.90;;;;;;5042660;28;20028;-74
2022/10/21 00:41:46;;;;;;;32.55;19.30;;;13.90;99.90;;;;;;5042451;28;20076;-74
2022/10/21 00:44:13;;;;;;;27.52;18.25;;;13.90;99.90;;;;;;5042011;28;20657;-74
2022/10/21 00:46:40;;;;;;;30.60;19.80;;;13.90;99.90;;;;;;5044065;28;20028;-74
2022/10/21 00:49:29;;;;;;;28.73;20.02;;;13.90;99.90;;;;;;5041558;28;20057;-74
2022/10/21 00:51:58;;;;;;;29.27;18.85;;;13.90;99.90;;;;;;5042559;28;20093;-74
2022/10/21 00:54:27;;;;;;;27.23;18.40;;;13.90;99.90;;;;;;5042643;28;20048;-74
2022/10/21 00:56:55;;;;;;;25.20;18.08;;;13.90;99.90;;;;;;5047713;28;20116;-74
2022/10/21 00:59:23;;;;;;;29.38;19.17;;;13.90;99.90;;;;;;5043753;28;20315;-74
2022/10/21 01:01:49;;;;;;;30.67;19.13;;;13.80;99.90;;;;;;5047465;28;20528;-73
2022/10/21 01:04:15;;;;;;;30.10;18.48;;;13.80;99.90;;;;;;5044049;28;20247;-74
2022/10/21 01:06:42;;;;;;;29.42;19.27;;;13.80;99.90;;;;;;5042519;28;20090;-74
2022/10/21 01:09:08;;;;;;;28.10;19.27;;;13.70;99.90;;;;;;5041842;28;20028;-74
2022/10/21 01:11:43;;;;;;;37.88;20.80;;;13.70;99.90;;;;;;5047906;28;20021;-73
2022/10/21 01:14:26;;;;;;;25.42;18.35;;;13.70;99.90;;;;;;5047711;28;20082;-74
2022/10/21 01:17:15;;;;;;;35.47;19.95;;;13.60;99.90;;;;;;5046409;28;20116;-74
2022/10/21 01:20:01;;;;;;;30.23;19.20;;;13.60;99.90;;;;;;5045857;28;20024;-73
2022/10/21 01:22:51;;;;;;;30.15;19.42;;;13.60;99.90;;;;;;5045572;28;20055;-73
2022/10/21 01:25:48;;;;;;;30.63;18.58;;;13.60;99.90;;;;;;5046194;28;21043;-74
2022/10/21 01:28:31;;;;;;;29.42;19.25;;;13.70;99.90;;;;;;5051814;28;20031;-74
2022/10/21 01:31:02;;;;;;;31.23;19.20;;;13.60;99.90;;;;;;5067268;28;20124;-74
2022/10/21 01:33:59;;;;;;;31.30;19.13;;;13.60;99.90;;;;;;5044493;28;20532;-74
2022/10/21 01:36:38;;;;;;;30.08;20.20;;;13.50;99.90;;;;;;5046296;28;20052;-74
2022/10/21 01:39:18;;;;;;;38.83;19.88;;;13.50;99.90;;;;;;5055915;28;20043;-74
2022/10/21 01:42:19;;;;;;;30.88;20.23;;;13.50;99.90;;;;;;5046585;28;20108;-74
2022/10/21 01:45:04;;;;;;;32.03;19.55;;;13.60;99.90;;;;;;5051517;28;20037;-74
2022/10/21 01:47:40;;;;;;;30.88;19.90;;;13.60;99.90;;;;;;5046078;28;20415;-73
2022/10/21 01:50:13;;;;;;;32.88;19.85;;;13.50;99.90;;;;;;5046017;28;20056;-74
2022/10/21 01:52:41;;;;;;;30.83;19.45;;;13.50;99.90;;;;;;5045203;28;20052;-74
2022/10/21 01:55:12;;;;;;;27.35;18.20;;;13.50;99.90;;;;;;5045252;28;20040;-74
2022/10/21 01:57:48;;;;;;;31.20;20.35;;;13.50;99.90;;;;;;5044383;28;20039;-74
2022/10/21 02:00:14;;;;;;;32.00;20.67;;;13.40;99.90;;;;;;5049357;28;20024;-74
2022/10/21 02:02:44;;;;;;;34.25;20.58;;;13.40;99.90;;;;;;5046584;28;20884;-73
2022/10/21 02:05:17;;;;;;;32.03;20.27;;;13.30;99.90;;;;;;5047136;28;20041;-74
2022/10/21 02:07:43;;;;;;;31.48;20.13;;;13.30;99.90;;;;;;5044312;28;20032;-74
2022/10/21 02:10:09;;;;;;;31.33;19.08;;;13.30;99.90;;;;;;5046774;28;20035;-74
2022/10/21 02:12:38;;;;;;;33.63;19.45;;;13.30;99.90;;;;;;5044625;28;20040;-74
2022/10/21 02:15:07;;;;;;;35.15;21.92;;;13.20;99.90;;;;;;5044455;28;20482;-74
2022/10/21 02:17:34;;;;;;;40.22;22.48;;;13.20;99.90;;;;;;5045398;28;20028;-74
2022/10/21 02:20:05;;;;;;;36.25;21.42;;;13.20;99.90;;;;;;5049327;28;20071;-73
2022/10/21 02:22:32;;;;;;;39.63;21.58;;;13.10;99.90;;;;;;5047476;28;20150;-74
2022/10/21 02:25:02;;;;;;;35.15;21.42;;;13.10;99.90;;;;;;5044749;28;20131;-74
2022/10/21 02:27:27;;;;;;;32.20;20.35;;;13.10;99.90;;;;;;5045868;28;20028;-74
2022/10/21 02:29:57;;;;;;;37.20;21.98;;;13.00;99.90;;;;;;5045339;28;20063;-74
2022/10/21 02:32:29;;;;;;;34.33;22.45;;;13.10;99.90;;;;;;5045532;28;20125;-74
2022/10/21 02:35:15;;;;;;;36.53;21.23;;;13.00;99.90;;;;;;5043352;28;20052;-73
2022/10/21 02:37:58;;;;;;;32.58;19.63;;;13.00;99.90;;;;;;5044889;28;20287;-74
2022/10/21 02:41:04;;;;;;;35.85;20.58;;;13.00;99.90;;;;;;5056324;28;20056;-73
2022/10/21 02:43:34;;;;;;;33.88;21.50;;;13.00;99.90;;;;;;5001050;28;20036;-73
2022/10/21 02:46:05;;;;;;;33.65;21.63;;;13.00;99.90;;;;;;4997437;28;20053;-74
2022/10/21 02:48:36;;;;;;;37.88;21.52;;;13.00;99.90;;;;;;5022913;28;20051;-74
2022/10/21 02:51:03;;;;;;;40.97;21.58;;;13.00;99.90;;;;;;5048505;28;20020;-74
2022/10/21 02:53:28;;;;;;;39.53;22.05;;;13.00;99.90;;;;;;5044727;28;20485;-74
2022/10/21 02:55:54;;;;;;;35.08;20.92;;;13.00;99.90;;;;;;5047215;28;20140;-74
2022/10/21 02:58:19;;;;;;;36.00;21.85;;;12.90;99.90;;;;;;5043945;28;20033;-75
2022/10/21 03:00:45;;;;;;;36.78;20.67;;;13.00;99.90;;;;;;5045250;28;20155;-74
2022/10/21 03:03:10;;;;;;;39.75;21.40;;;12.90;99.90;;;;;;5047094;28;20032;-74
2022/10/21 03:05:36;;;;;;;40.90;21.92;;;12.90;99.90;;;;;;5043476;28;20118;-73
2022/10/21 03:08:02;;;;;;;34.75;20.83;;;12.90;99.90;;;;;;5042432;28;20039;-74
2022/10/21 03:10:28;;;;;;;35.92;20.65;;;12.90;99.90;;;;;;5052582;28;20436;-73
2022/10/21 03:12:54;;;;;;;34.08;19.60;;;13.00;99.90;;;;;;5041488;28;20024;-73
2022/10/21 03:15:19;;;;;;;33.65;20.05;;;13.00;99.90;;;;;;5048434;28;20048;-73
2022/10/21 03:17:46;;;;;;;37.38;20.08;;;13.00;99.90;;;;;;5044016;28;20564;-73
2022/10/21 03:20:11;;;;;;;33.83;21.33;;;13.10;99.90;;;;;;5044663;28;20045;-73
2022/10/21 03:22:37;;;;;;;33.72;20.65;;;13.10;99.90;;;;;;5046830;28;20044;-73
2022/10/21 03:25:03;;;;;;;34.00;21.35;;;13.10;99.90;;;;;;5047995;28;20116;-74
2022/10/21 03:27:29;;;;;;;32.10;19.98;;;13.10;99.90;;;;;;5048395;28;20024;-74
2022/10/21 03:29:54;;;;;;;36.60;21.73;;;13.10;99.90;;;;;;5042209;28;20469;-73
2022/10/21 03:32:20;;;;;;;36.78;20.05;;;13.10;99.90;;;;;;5042438;28;20648;-74
2022/10/21 03:34:45;;;;;;;32.67;19.30;;;13.10;99.90;;;;;;5043607;28;20041;-74
2022/10/21 03:37:11;;;;;;;32.75;19.40;;;13.10;99.90;;;;;;5051410;28;20028;-74
2022/10/21 03:39:36;;;;;;;30.77;18.08;;;13.00;99.90;;;;;;5048851;28;20029;-74
2022/10/21 03:42:02;;;;;;;32.72;17.83;;;13.00;99.90;;;;;;5041356;28;20089;-74
2022/10/21 03:44:28;;;;;;;31.05;19.30;;;13.00;99.90;;;;;;5043494;28;20429;-74
2022/10/21 03:46:53;;;;;;;29.45;18.95;;;13.00;99.90;;;;;;5042939;28;20028;-74
2022/10/21 03:49:19;;;;;;;33.03;19.77;;;12.90;99.90;;;;;;5042506;28;20533;-74
2022/10/21 03:51:44;;;;;;;32.10;19.20;;;12.90;99.90;;;;;;5047122;28;20037;-74
2022/10/21 03:54:10;;;;;;;33.72;19.80;;;12.90;99.90;;;;;;5042313;28;20396;-73
2022/10/21 03:56:35;;;;;;;33.20;20.05;;;12.90;99.90;;;;;;5044173;28;20107;-74
2022/10/21 03:59:01;;;;;;;33.92;19.67;;;12.90;99.90;;;;;;5044325;28;20557;-73
2022/10/21 04:01:26;;;;;;;31.67;18.77;;;12.90;99.90;;;;;;5044179;28;20052;-74
2022/10/21 04:03:52;;;;;;;32.85;19.70;;;12.80;99.90;;;;;;5044041;28;20086;-74
2022/10/21 04:06:18;;;;;;;29.58;19.35;;;12.80;99.90;;;;;;5044318;28;20088;-73
2022/10/21 04:08:43;;;;;;;34.17;18.92;;;12.80;99.90;;;;;;5048676;28;20043;-73
2022/10/21 04:11:09;;;;;;;31.45;17.83;;;12.80;99.90;;;;;;5043746;28;20029;-74
2022/10/21 04:13:35;;;;;;;32.03;18.95;;;12.80;99.90;;;;;;5042400;28;20086;-73
2022/10/21 04:16:03;;;;;;;30.77;20.00;;;12.80;99.90;;;;;;5043608;28;20038;-73
2022/10/21 04:18:29;;;;;;;29.67;19.65;;;12.70;99.90;;;;;;5046079;28;20495;-73
2022/10/21 04:20:54;;;;;;;37.13;19.55;;;12.70;99.90;;;;;;5046974;28;21426;-73
2022/10/21 04:23:20;;;;;;;32.78;18.83;;;12.70;99.90;;;;;;5042491;28;20060;-73
2022/10/21 04:25:45;;;;;;;32.88;19.80;;;12.70;99.90;;;;;;5043282;28;20116;-73
2022/10/21 04:28:11;;;;;;;33.40;19.60;;;12.80;99.90;;;;;;5048112;22;20053;-73
2022/10/21 04:30:37;;;;;;;30.42;18.55;;;12.70;99.90;;;;;;5009825;28;20733;-73
2022/10/21 04:33:02;;;;;;;40.72;19.80;;;12.70;99.90;;;;;;5025459;28;20481;-73
2022/10/21 04:35:28;;;;;;;33.75;20.48;;;12.70;99.90;;;;;;5032019;28;20113;-73
2022/10/21 04:37:54;;;;;;;32.35;17.67;;;12.70;99.90;;;;;;5036922;28;20032;-73
2022/10/21 04:40:19;;;;;;;33.30;19.80;;;12.70;99.90;;;;;;5028174;28;20028;-73
2022/10/21 04:42:48;;;;;;;33.97;20.20;;;12.70;99.90;;;;;;5027379;28;20052;-74
2022/10/21 04:45:15;;;;;;;38.30;19.50;;;12.70;99.90;;;;;;5032190;28;20039;-74
2022/10/21 04:47:41;;;;;;;33.00;19.05;;;12.60;99.90;;;;;;5038998;28;20480;-73
2022/10/21 04:50:07;;;;;;;35.50;19.73;;;12.60;99.90;;;;;;5032202;28;20036;-73
2022/10/21 04:52:33;;;;;;;36.40;19.23;;;12.60;99.90;;;;;;5033067;28;20104;-73
2022/10/21 04:54:58;;;;;;;35.40;19.42;;;12.50;99.90;;;;;;5037714;28;20029;-73
2022/10/21 04:57:24;;;;;;;34.13;18.88;;;12.50;99.90;;;;;;5031525;28;20507;-73
2022/10/21 04:59:49;;;;;;;34.63;19.15;;;12.50;99.90;;;;;;5032067;28;20045;-73
2022/10/21 05:02:15;;;;;;;36.25;21.25;;;12.50;99.90;;;;;;5024169;28;20425;-74
2022/10/21 05:04:40;;;;;;;33.92;19.38;;;12.50;99.90;;;;;;5034953;28;20026;-73
2022/10/21 05:07:06;;;;;;;31.80;19.08;;;12.50;99.90;;;;;;5035034;28;24298;-73
2022/10/21 05:09:32;;;;;;;32.03;19.17;;;12.40;99.90;;;;;;5032105;28;20037;-73
2022/10/21 05:11:58;;;;;;;32.67;18.45;;;12.40;99.90;;;;;;5038386;28;20028;-72
2022/10/21 05:14:23;;;;;;;34.05;19.33;;;12.40;99.90;;;;;;5029671;28;20037;-72
2022/10/21 05:16:49;;;;;;;29.58;19.00;;;12.50;99.90;;;;;;5031540;28;20388;-72
2022/10/21 05:19:15;;;;;;;33.65;18.88;;;12.40;99.90;;;;;;5032975;28;20033;-73
2022/10/21 05:21:40;;;;;;;32.92;17.50;;;12.40;99.90;;;;;;5030838;28;20033;-73
2022/10/21 05:24:06;;;;;;;29.25;17.73;;;12.40;99.90;;;;;;5031986;28;20082;-73
2022/10/21 05:26:31;;;;;;;27.40;18.98;;;12.40;99.90;;;;;;5033211;28;20460;-73
2022/10/21 05:28:58;;;;;;;28.83;18.35;;;12.40;99.90;;;;;;5030938;28;20057;-74
2022/10/21 05:31:24;;;;;;;33.97;19.50;;;12.40;99.90;;;;;;5031412;28;20063;-74
2022/10/21 05:33:50;;;;;;;34.05;19.65;;;12.40;99.90;;;;;;5027836;28;20060;-73
2022/10/21 05:36:16;;;;;;;31.52;19.85;;;12.30;99.90;;;;;;5028649;28;21477;-73
2022/10/21 05:38:41;;;;;;;33.90;19.15;;;12.40;99.90;;;;;;5044912;28;20500;-74
2022/10/21 05:41:09;;;;;;;34.85;19.98;;;12.30;99.90;;;;;;5030267;28;20092;-72
2022/10/21 05:43:36;;;;;;;32.28;18.73;;;12.40;99.90;;;;;;5029935;28;20370;-73
2022/10/21 05:46:03;;;;;;;36.50;19.45;;;12.30;99.90;;;;;;5037924;28;21610;-74
2022/10/21 05:48:29;;;;;;;38.33;20.33;;;12.30;99.90;;;;;;5043305;28;20429;-74
2022/10/21 05:50:56;;;;;;;33.20;19.60;;;12.30;99.90;;;;;;5047549;28;20500;-73
2022/10/21 05:53:25;;;;;;;32.15;19.70;;;12.40;99.90;;;;;;5034117;28;20048;-74
2022/10/21 05:56:02;;;;;;;32.95;19.10;;;12.30;99.90;;;;;;5030074;28;20136;-73
2022/10/21 05:58:29;;;;;;;33.35;19.92;;;12.30;99.90;;;;;;5024116;28;20511;-73
2022/10/21 06:00:55;;;;;;;32.17;19.02;;;12.30;99.90;;;;;;5035061;28;20539;-73
2022/10/21 06:03:28;;;;;;;38.38;18.70;;;12.30;99.90;;;;;;5039483;28;20449;-73
2022/10/21 06:05:58;;;;;;;35.40;19.25;;;12.20;99.90;;;;;;5033437;28;20037;-73
2022/10/21 06:08:24;;;;;;;32.92;18.92;;;12.20;99.90;;;;;;5035238;28;20537;-73
2022/10/21 06:11:03;;;;;;;38.70;20.40;;;12.20;99.90;;;;;;5036242;28;20049;-73
2022/10/21 06:13:29;;;;;;;35.53;19.55;;;12.20;99.90;;;;;;5037146;28;20037;-73
2022/10/21 06:15:55;;;;;;;34.85;19.40;;;12.10;99.90;;;;;;5031341;28;20052;-73
2022/10/21 06:18:21;;;;;;;34.35;19.20;;;12.10;99.90;;;;;;5027949;28;20037;-74
2022/10/21 06:20:46;;;;;;;37.55;19.90;;;12.20;99.90;;;;;;5026372;28;20037;-74
2022/10/21 06:23:14;;;;;;;36.45;18.95;;;12.20;99.90;;;;;;5024136;28;20368;-74
2022/10/21 06:25:39;;;;;;;34.03;19.38;;;12.10;99.90;;;;;;5033211;28;20025;-74
2022/10/21 06:28:05;;;;;;;39.15;20.85;;;12.10;99.90;;;;;;5030140;28;20538;-74
2022/10/21 06:30:31;;;;;;;37.58;19.38;;;12.20;99.90;;;;;;5028992;28;20037;-74
2022/10/21 06:32:56;;;;;;;30.38;18.73;;;12.10;99.90;;;;;;5029872;28;20492;-73
2022/10/21 06:35:21;;;;;;;38.35;18.98;;;12.20;99.90;;;;;;5031958;28;20041;-74
2022/10/21 06:37:47;;;;;;;34.08;18.27;;;12.20;99.90;;;;;;5028893;28;20045;-73
2022/10/21 06:40:13;;;;;;;29.98;17.75;;;12.20;99.90;;;;;;5030552;28;20680;-74
2022/10/21 06:42:38;;;;;;;35.05;18.27;;;12.20;99.90;;;;;;5032771;28;20021;-74
2022/10/21 06:45:04;;;;;;;33.38;18.73;;;12.20;99.90;;;;;;5040987;28;20480;-74
2022/10/21 06:47:30;;;;;;;32.58;17.80;;;12.30;99.90;;;;;;5030445;28;20039;-74
2022/10/21 06:49:55;;;;;;;35.35;19.27;;;12.40;99.90;;;;;;5030986;28;20040;-74
2022/10/21 06:52:21;;;;;;;37.45;18.75;;;12.30;99.90;;;;;;5029300;28;20024;-73
2022/10/21 06:54:46;;;;;;;38.55;19.83;;;12.40;99.90;;;;;;5027977;28;20099;-71
2022/10/21 06:57:12;;;;;;;33.05;19.23;;;12.40;99.90;;;;;;5026923;28;20047;-72
2022/10/21 06:59:37;;;;;;;29.75;18.48;;;12.50;99.90;;;;;;5042520;28;20029;-72
2022/10/21 07:02:03;;;;;;;32.72;19.02;;;12.50;99.90;;;;;;5045304;28;20021;-72
2022/10/21 07:04:28;;;;;;;31.52;18.27;;;12.50;99.90;;;;;;5044165;28;20114;-72
2022/10/21 07:06:54;;;;;;;33.35;18.25;;;12.60;99.90;;;;;;5046768;28;20029;-72
2022/10/21 07:09:20;;;;;;;29.80;18.08;;;12.60;99.90;;;;;;5051266;28;20029;-72
2022/10/21 07:11:46;;;;;;;29.10;16.30;;;12.70;99.90;;;;;;5051902;28;20024;-72
2022/10/21 07:14:11;;;;;;;28.77;16.85;;;12.70;99.90;;;;;;5037508;28;20048;-72
2022/10/21 07:16:37;;;;;;;25.15;16.60;;;12.70;99.90;;;;;;5049053;28;22106;-72
2022/10/21 07:19:04;;;;;;;31.65;16.92;;;12.80;99.90;;;;;;5051547;28;20428;-72
2022/10/21 07:21:30;;;;;;;33.13;17.30;;;12.80;99.90;;;;;;5051515;28;20025;-72
2022/10/21 07:23:57;;;;;;;26.85;16.02;;;12.90;99.90;;;;;;5051363;28;20021;-72
2022/10/21 07:26:24;;;;;;;26.83;16.30;;;12.90;99.90;;;;;;5043271;28;20036;-72
2022/10/21 07:28:51;;;;;;;28.30;16.35;;;12.90;99.90;;;;;;5049521;28;20450;-72
2022/10/21 07:31:19;;;;;;;27.42;16.30;;;13.00;99.90;;;;;;5049221;28;20027;-72
2022/10/21 07:33:44;;;;;;;28.60;16.40;;;13.00;99.90;;;;;;5051060;28;20029;-72
2022/10/21 07:36:17;;;;;;;30.25;17.88;;;13.10;99.90;;;;;;5048295;28;20048;-72
2022/10/21 07:38:45;;;;;;;24.42;15.23;;;13.20;99.90;;;;;;5049207;28;20021;-72
2022/10/21 07:41:22;;;;;;;26.80;15.55;;;13.20;99.90;;;;;;5052269;28;20127;-72
2022/10/21 07:43:48;;;;;;;29.45;16.75;;;13.30;99.90;;;;;;5048179;28;20045;-72
2022/10/21 07:46:14;;;;;;;23.00;15.48;;;13.40;99.90;;;;;;5048958;28;20070;-72
2022/10/21 07:48:39;;;;;;;24.25;15.95;;;13.40;99.90;;;;;;5035172;28;20426;-72
2022/10/21 07:51:08;;;;;;;27.48;15.90;;;13.50;99.90;;;;;;5042612;28;20542;-72
2022/10/21 07:53:33;;;;;;;26.67;15.23;;;13.50;99.90;;;;;;5048960;28;20051;-72
2022/10/21 07:56:12;;;;;;;22.95;15.13;;;13.60;99.90;;;;;;5036143;28;20037;-72
2022/10/21 07:58:37;;;;;;;22.48;15.02;;;13.60;99.90;;;;;;5046884;28;20033;-72
2022/10/21 08:01:05;;;;;;;24.90;15.20;;;13.70;99.90;;;;;;5047700;28;20211;-72
2022/10/21 08:03:31;;;;;;;26.73;15.05;;;13.80;99.90;;;;;;5050571;28;20087;-72
2022/10/21 08:05:57;;;;;;;21.58;14.30;;;13.90;99.90;;;;;;5048352;28;20036;-73
2022/10/21 08:08:24;;;;;;;24.90;15.02;;;13.90;99.90;;;;;;5049697;28;20029;-72
2022/10/21 08:10:51;;;;;;;23.00;14.40;;;14.00;99.90;;;;;;5047596;28;20096;-73
2022/10/21 08:13:17;;;;;;;27.45;14.68;;;14.00;99.90;;;;;;5049282;28;20598;-73
2022/10/21 08:15:44;;;;;;;24.40;13.93;;;14.10;99.90;;;;;;5050752;28;20056;-72
2022/10/21 08:18:10;;;;;;;20.98;14.48;;;14.20;99.90;;;;;;5048502;28;20586;-73
2022/10/21 08:20:42;;;;;;;22.98;16.10;;;14.20;99.90;;;;;;5048786;28;20433;-72
2022/10/21 08:23:07;;;;;;;21.75;14.65;;;14.20;99.90;;;;;;5036276;28;20029;-73
2022/10/21 08:25:34;;;;;;;21.52;14.00;;;14.30;99.90;;;;;;5044598;28;20044;-73
2022/10/21 08:28:00;;;;;;;23.30;15.05;;;14.30;99.90;;;;;;5049173;28;20049;-73
2022/10/21 08:30:30;;;;;;;20.30;14.43;;;14.40;99.90;;;;;;5051093;28;20116;-73
2022/10/21 08:33:00;;;;;;;24.52;14.90;;;14.40;99.90;;;;;;5048193;28;20146;-73
2022/10/21 08:35:26;;;;;;;20.08;13.25;;;14.50;99.90;;;;;;5047276;28;20041;-73
2022/10/21 08:37:52;;;;;;;24.45;14.70;;;14.50;99.90;;;;;;5044153;28;20049;-73
2022/10/21 08:40:18;;;;;;;21.00;13.27;;;14.60;99.90;;;;;;5037113;28;20064;-73
2022/10/21 08:42:45;;;;;;;20.58;13.88;;;14.60;99.90;;;;;;5038451;28;20096;-73
2022/10/21 08:45:27;;;;;;;22.23;13.23;;;14.60;99.90;;;;;;5047290;28;20495;-73
2022/10/21 08:47:56;;;;;;;20.48;12.48;;;14.70;99.90;;;;;;5047207;28;20044;-72
2022/10/21 08:50:27;;;;;;;21.35;13.77;;;14.60;99.90;;;;;;5042517;28;20029;-73
2022/10/21 08:53:05;;;;;;;20.25;13.40;;;14.70;99.90;;;;;;5041903;28;20504;-73
2022/10/21 08:55:39;;;;;;;19.60;11.90;;;14.70;99.90;;;;;;5042975;28;20496;-73
2022/10/21 08:58:05;;;;;;;21.42;13.30;;;14.70;99.90;;;;;;5043739;28;20025;-73
2022/10/21 09:00:36;;;;;;;18.67;11.85;;;14.70;99.90;;;;;;5049387;28;20029;-73
2022/10/21 09:03:10;;;;;;;19.80;12.35;;;14.70;99.90;;;;;;5050717;28;20082;-73
2022/10/21 09:05:56;;;;;;;18.90;11.60;;;14.70;99.90;;;;;;5049261;28;20125;-73
2022/10/21 09:08:29;;;;;;;18.50;11.82;;;14.70;99.90;;;;;;5045570;28;20033;-73
2022/10/21 09:11:24;;;;;;;18.63;12.35;;;14.70;99.90;;;;;;5049525;28;20025;-73
2022/10/21 09:14:17;;;;;;;19.85;11.32;;;14.80;99.90;;;;;;5045527;28;20029;-74
2022/10/21 09:17:20;;;;;;;18.33;10.65;;;14.70;99.90;;;;;;5040672;28;20034;-74
2022/10/21 09:20:06;;;;;;;17.45;11.55;;;14.80;99.90;;;;;;5047489;28;20082;-74
2022/10/21 09:22:41;;;;;;;20.38;12.00;;;14.80;99.90;;;;;;5044422;28;20021;-74
2022/10/21 09:25:24;;;;;;;17.60;12.60;;;14.80;99.90;;;;;;5042951;28;20021;-73
2022/10/21 09:27:51;;;;;;;16.52;11.77;;;14.80;99.90;;;;;;5040384;28;20647;-73
2022/10/21 09:30:21;;;;;;;17.25;11.98;;;14.80;99.90;;;;;;5049201;28;20044;-74
2022/10/21 09:32:49;;;;;;;15.32;11.23;;;14.80;99.90;;;;;;5049992;28;20054;-74
2022/10/21 09:35:41;;;;;;;17.10;12.77;;;14.80;99.90;;;;;;5047718;28;20201;-76
2022/10/21 09:38:22;;;;;;;17.87;11.97;;;14.80;99.90;;;;;;5049720;28;20055;-73
2022/10/21 09:40:51;;;;;;;21.17;12.70;;;14.80;99.90;;;;;;5055706;28;20032;-73
2022/10/21 09:43:21;;;;;;;17.27;11.65;;;14.80;99.90;;;;;;5050185;28;20124;-74
2022/10/21 09:45:47;;;;;;;17.42;12.02;;;14.80;99.90;;;;;;5047576;28;20029;-73
2022/10/21 09:48:31;;;;;;;22.35;12.57;;;14.90;99.90;;;;;;5047226;28;20029;-73
2022/10/21 09:51:05;;;;;;;19.50;12.30;;;15.00;99.90;;;;;;5053325;28;20066;-73
2022/10/21 09:53:37;;;;;;;17.25;11.93;;;15.10;99.90;;;;;;5047259;28;20030;-73
2022/10/21 09:56:10;;;;;;;16.10;10.73;;;15.20;99.90;;;;;;5045637;28;20484;-73
2022/10/21 09:58:36;;;;;;;17.85;12.32;;;15.30;99.90;;;;;;5040656;28;20031;-73
2022/10/21 10:01:03;;;;;;;18.70;12.30;;;15.40;99.90;;;;;;5051512;28;20029;-74
2022/10/21 10:03:31;;;;;;;20.65;12.88;;;15.50;99.90;;;;;;5049368;28;20033;-73
2022/10/21 10:06:00;;;;;;;16.90;11.18;;;15.60;99.90;;;;;;5042139;28;20362;-73
2022/10/21 10:08:34;;;;;;;15.95;11.55;;;15.70;99.90;;;;;;5046287;28;20378;-73
2022/10/21 10:11:08;;;;;;;13.38;10.40;;;15.80;99.90;;;;;;5051565;28;20033;-73
2022/10/21 10:13:49;;;;;;;19.77;11.43;;;15.90;99.90;;;;;;5049331;28;20361;-73
2022/10/21 10:16:29;;;;;;;17.17;11.00;;;16.10;99.90;;;;;;5045911;28;20086;-73
2022/10/21 10:19:16;;;;;;;20.55;12.32;;;16.10;99.90;;;;;;5051069;28;20128;-74
2022/10/21 10:21:42;;;;;;;16.90;10.82;;;16.20;99.90;;;;;;5052529;28;20063;-74
2022/10/21 10:24:17;;;;;;;15.65;11.00;;;16.30;99.90;;;;;;5050378;28;21897;-74
2022/10/21 10:26:43;;;;;;;18.35;11.07;;;16.30;99.90;;;;;;5051251;28;20067;-73
2022/10/21 10:29:17;;;;;;;16.75;11.23;;;16.40;99.90;;;;;;5051946;28;20037;-74
2022/10/21 10:31:52;;;;;;;18.92;10.18;;;16.50;99.90;;;;;;5046269;28;20049;-73
2022/10/21 10:34:22;;;;;;;20.77;11.07;;;16.50;99.90;;;;;;5047320;28;20033;-74
2022/10/21 10:36:49;;;;;;;16.48;9.35;;;16.60;99.90;;;;;;5037820;28;20396;-74
2022/10/21 10:39:29;;;;;;;11.82;9.35;;;16.70;99.90;;;;;;5043396;28;20028;-75
2022/10/21 10:41:55;;;;;;;15.48;9.02;;;16.80;99.90;;;;;;5051305;28;20060;-74
2022/10/21 10:44:38;;;;;;;12.93;9.00;;;16.80;99.90;;;;;;5049929;28;20143;-74
2022/10/21 10:47:06;;;;;;;12.73;8.15;;;16.90;99.90;;;;;;5048053;28;20029;-74
2022/10/21 10:49:39;;;;;;;11.07;6.68;;;17.00;99.90;;;;;;5043473;28;20029;-73
2022/10/21 10:52:12;;;;;;;;;;;17.00;99.90;;;;;;5028889;28;20029;-73
2022/10/21 10:54:39;;;;;;;11.75;7.47;;;17.10;99.90;;;;;;5034863;28;19921;-73
2022/10/21 10:57:09;;;;;;;11.85;8.93;;;17.20;99.90;;;;;;5050186;28;20112;-73
2022/10/21 10:59:45;;;;;;;15.52;8.85;;;17.30;99.90;;;;;;5053654;28;20029;-73
2022/10/21 11:02:11;;;;;;;15.05;6.88;;;17.30;99.90;;;;;;5052059;28;20029;-73
2022/10/21 11:04:40;;;;;;;10.55;7.20;;;17.40;99.90;;;;;;5050879;28;20037;-72
2022/10/21 11:07:27;;;;;;;13.88;7.53;;;17.40;99.90;;;;;;5048751;28;20484;-73
2022/10/21 11:10:11;;;;;;;13.27;8.20;;;17.50;99.90;;;;;;5034264;28;20018;-72
2022/10/21 11:12:37;;;;;;;12.93;8.13;;;17.50;99.90;;;;;;5045481;28;20029;-72
2022/10/21 11:15:05;;;;;;;13.75;8.07;;;17.60;99.90;;;;;;5069846;28;20037;-73
2022/10/21 11:18:04;;;;;;;12.38;8.13;;;17.60;99.90;;;;;;5048231;28;20025;-72
2022/10/21 11:20:43;;;;;;;13.27;8.38;;;17.70;99.90;;;;;;5024616;28;20057;-73
2022/10/21 11:23:32;;;;;;;11.50;7.50;;;17.80;99.90;;;;;;5046924;28;20115;-72
2022/10/21 11:26:04;;;;;;;13.55;7.55;;;17.80;99.90;;;;;;5046188;28;20075;-73
2022/10/21 11:28:46;;;;;;;12.52;8.65;;;17.90;99.90;;;;;;5051816;28;20045;-73
2022/10/21 11:31:42;;;;;;;10.37;7.20;;;18.10;99.90;;;;;;5051279;28;20055;-73
2022/10/21 11:34:24;;;;;;;12.40;7.80;;;18.30;99.90;;;;;;5045652;28;20037;-73
2022/10/21 11:37:18;;;;;;;11.95;7.00;;;18.40;99.90;;;;;;5043454;28;20025;-73
2022/10/21 11:39:49;;;;;;;9.00;6.75;;;18.60;99.90;;;;;;5050082;28;20064;-73
2022/10/21 11:42:42;;;;;;;10.48;7.05;;;18.70;99.90;;;;;;5050742;28;20032;-74
2022/10/21 11:45:23;;;;;;;11.52;7.40;;;18.70;99.90;;;;;;5035845;28;20095;-74
2022/10/21 11:48:08;;;;;;;11.48;7.18;;;18.60;99.90;;;;;;5047755;28;20523;-73
2022/10/21 11:50:46;;;;;;;9.63;6.38;;;18.70;99.90;;;;;;5042717;28;20043;-74
2022/10/21 11:53:25;;;;;;;10.90;6.22;;;18.70;99.90;;;;;;5047195;28;20115;-74
2022/10/21 11:56:05;;;;;;;10.40;6.20;;;18.80;99.90;;;;;;5047613;28;20037;-73
2022/10/21 11:58:52;;;;;;;9.20;6.72;;;18.80;99.90;;;;;;5049334;28;20163;-74
2022/10/21 12:01:28;;;;;;;8.85;6.35;;;18.90;99.90;;;;;;5051421;28;20048;-73
2022/10/21 12:04:23;;;;;;;9.38;6.13;;;18.90;99.90;;;;;;5051660;28;20053;-74
2022/10/21 12:07:09;;;;;;;7.65;4.65;;;19.10;99.90;;;;;;5041113;28;20524;-73
2022/10/21 12:10:03;;;;;;;4.88;3.10;;;19.20;99.90;;;;;;5050954;28;20459;-73
2022/10/21 12:12:32;;;;;;;4.15;3.15;;;19.30;99.90;;;;;;5049848;28;20107;-74
2022/10/21 12:15:03;;;;;;;6.05;3.60;;;19.30;99.90;;;;;;5049787;28;20043;-73
2022/10/21 12:17:33;;;;;;;7.72;3.17;;;19.20;99.90;;;;;;5046920;28;20027;-74
2022/10/21 12:20:03;;;;;;;6.00;3.28;;;19.20;99.90;;;;;;5051045;28;20021;-73
2022/10/21 12:22:30;;;;;;;6.05;2.80;;;19.20;99.90;;;;;;5049756;28;20021;-74
2022/10/21 12:25:27;;;;;;;4.65;2.65;;;19.20;99.90;;;;;;5049460;28;20021;-73
2022/10/21 12:28:15;;;;;;;4.05;2.45;;;19.20;99.90;;;;;;5049849;28;20115;-73
2022/10/21 12:30:55;;;;;;;5.15;2.45;;;19.20;99.90;;;;;;5044621;28;20094;-74
2022/10/21 12:33:39;;;;;;;7.35;2.90;;;19.30;99.90;;;;;;5050605;28;20026;-74
2022/10/21 12:36:19;;;;;;;4.78;1.92;;;19.40;99.90;;;;;;5048545;28;20033;-73
2022/10/21 12:38:53;;;;;;;3.83;1.77;;;19.50;99.90;;;;;;5049056;28;20469;-74
2022/10/21 12:41:23;;;;;;;4.07;1.63;;;19.50;99.90;;;;;;5051180;28;20028;-72
2022/10/21 12:44:01;;;;;;;3.30;1.40;;;19.40;99.90;;;;;;5048364;28;20370;-73
2022/10/21 12:46:29;;;;;;;4.07;1.58;;;19.40;99.90;;;;;;5049444;28;20025;-73
2022/10/21 12:48:58;;;;;;;5.30;1.30;;;19.30;99.90;;;;;;5048646;28;20032;-73